sensor_id;sensor_type;location;lat;lon;timestamp;P1;durP1;ratioP1;P2;durP2;ratioP2
7813;SDS011;3952;48.364;16.022;2022-07-23T00:00:17;10.60;;;9.43;;
7813;SDS011;3952;48.364;16.022;2022-07-23T00:02:46;11.57;;;9.70;;
7813;SDS011;3952;48.364;16.022;2022-07-23T00:05:13;9.53;;;8.90;;
7813;SDS011;3952;48.364;16.022;2022-07-23T00:07:42;9.33;;;8.73;;
7813;SDS011;3952;48.364;16.022;2022-07-23T00:10:09;9.33;;;8.83;;
7813;SDS011;3952;48.364;16.022;2022-07-23T00:12:36;9.83;;;9.20;;
7813;SDS011;3952;48.364;16.022;2022-07-23T00:15:04;8.23;;;7.83;;
7813;SDS011;3952;48.364;16.022;2022-07-23T00:17:33;8.83;;;8.33;;
7813;SDS011;3952;48.364;16.022;2022-07-23T00:20:00;8.83;;;8.43;;
7813;SDS011;3952;48.364;16.022;2022-07-23T00:22:27;9.90;;;9.20;;
7813;SDS011;3952;48.364;16.022;2022-07-23T00:24:56;8.73;;;8.23;;
7813;SDS011;3952;48.364;16.022;2022-07-23T00:27:23;11.27;;;9.00;;
7813;SDS011;3952;48.364;16.022;2022-07-23T00:29:50;9.63;;;8.83;;
7813;SDS011;3952;48.364;16.022;2022-07-23T00:32:18;10.83;;;8.80;;
7813;SDS011;3952;48.364;16.022;2022-07-23T00:34:45;9.13;;;8.63;;
7813;SDS011;3952;48.364;16.022;2022-07-23T00:37:12;9.90;;;9.40;;
7813;SDS011;3952;48.364;16.022;2022-07-23T00:39:39;9.57;;;8.97;;
7813;SDS011;3952;48.364;16.022;2022-07-23T00:42:08;8.97;;;8.47;;
7813;SDS011;3952;48.364;16.022;2022-07-23T00:44:35;10.43;;;9.83;;
7813;SDS011;3952;48.364;16.022;2022-07-23T00:47:02;10.17;;;9.57;;
7813;SDS011;3952;48.364;16.022;2022-07-23T00:49:31;10.47;;;9.77;;
7813;SDS011;3952;48.364;16.022;2022-07-23T00:51:59;10.23;;;9.53;;
7813;SDS011;3952;48.364;16.022;2022-07-23T00:54:28;10.33;;;9.67;;
7813;SDS011;3952;48.364;16.022;2022-07-23T00:56:55;10.10;;;9.50;;
7813;SDS011;3952;48.364;16.022;2022-07-23T00:59:24;9.97;;;9.27;;
7813;SDS011;3952;48.364;16.022;2022-07-23T01:01:51;10.00;;;9.30;;
7813;SDS011;3952;48.364;16.022;2022-07-23T01:04:19;9.40;;;8.70;;
7813;SDS011;3952;48.364;16.022;2022-07-23T01:06:46;9.20;;;8.60;;
7813;SDS011;3952;48.364;16.022;2022-07-23T01:09:13;9.90;;;9.30;;
7813;SDS011;3952;48.364;16.022;2022-07-23T01:11:40;10.27;;;9.57;;
7813;SDS011;3952;48.364;16.022;2022-07-23T01:14:11;11.53;;;10.63;;
7813;SDS011;3952;48.364;16.022;2022-07-23T01:16:42;11.90;;;11.00;;
7813;SDS011;3952;48.364;16.022;2022-07-23T01:19:10;11.40;;;10.70;;
7813;SDS011;3952;48.364;16.022;2022-07-23T01:21:38;11.13;;;10.27;;
7813;SDS011;3952;48.364;16.022;2022-07-23T01:24:08;11.07;;;10.40;;
7813;SDS011;3952;48.364;16.022;2022-07-23T01:26:36;11.00;;;10.40;;
7813;SDS011;3952;48.364;16.022;2022-07-23T01:29:05;12.30;;;11.33;;
7813;SDS011;3952;48.364;16.022;2022-07-23T01:31:32;10.73;;;10.10;;
7813;SDS011;3952;48.364;16.022;2022-07-23T01:33:59;11.33;;;10.40;;
7813;SDS011;3952;48.364;16.022;2022-07-23T01:36:27;11.20;;;10.30;;
7813;SDS011;3952;48.364;16.022;2022-07-23T01:38:54;10.43;;;9.77;;
7813;SDS011;3952;48.364;16.022;2022-07-23T01:41:22;10.43;;;9.93;;
7813;SDS011;3952;48.364;16.022;2022-07-23T01:43:50;11.50;;;10.70;;
7813;SDS011;3952;48.364;16.022;2022-07-23T01:46:17;10.63;;;10.03;;
7813;SDS011;3952;48.364;16.022;2022-07-23T01:48:44;9.70;;;9.20;;
7813;SDS011;3952;48.364;16.022;2022-07-23T01:51:11;10.70;;;9.90;;
7813;SDS011;3952;48.364;16.022;2022-07-23T01:53:39;10.43;;;9.83;;
7813;SDS011;3952;48.364;16.022;2022-07-23T01:56:06;10.67;;;10.07;;
7813;SDS011;3952;48.364;16.022;2022-07-23T01:58:35;10.97;;;10.27;;
7813;SDS011;3952;48.364;16.022;2022-07-23T02:01:02;10.00;;;9.50;;
7813;SDS011;3952;48.364;16.022;2022-07-23T02:03:29;9.93;;;9.43;;
7813;SDS011;3952;48.364;16.022;2022-07-23T02:05:56;10.77;;;10.10;;
7813;SDS011;3952;48.364;16.022;2022-07-23T02:08:24;10.87;;;10.17;;
7813;SDS011;3952;48.364;16.022;2022-07-23T02:10:51;11.57;;;10.80;;
7813;SDS011;3952;48.364;16.022;2022-07-23T02:13:18;10.50;;;9.80;;
7813;SDS011;3952;48.364;16.022;2022-07-23T02:15:47;10.80;;;10.30;;
7813;SDS011;3952;48.364;16.022;2022-07-23T02:18:14;11.13;;;10.40;;
7813;SDS011;3952;48.364;16.022;2022-07-23T02:20:42;10.67;;;10.17;;
7813;SDS011;3952;48.364;16.022;2022-07-23T02:23:09;11.60;;;10.70;;
7813;SDS011;3952;48.364;16.022;2022-07-23T02:25:37;11.17;;;10.57;;
7813;SDS011;3952;48.364;16.022;2022-07-23T02:28:04;10.63;;;10.03;;
7813;SDS011;3952;48.364;16.022;2022-07-23T02:30:31;11.33;;;10.73;;
7813;SDS011;3952;48.364;16.022;2022-07-23T02:33:00;11.53;;;10.70;;
7813;SDS011;3952;48.364;16.022;2022-07-23T02:35:27;10.90;;;10.30;;
7813;SDS011;3952;48.364;16.022;2022-07-23T02:37:54;11.50;;;10.80;;
7813;SDS011;3952;48.364;16.022;2022-07-23T02:40:21;11.80;;;10.87;;
7813;SDS011;3952;48.364;16.022;2022-07-23T02:42:49;11.47;;;10.57;;
7813;SDS011;3952;48.364;16.022;2022-07-23T02:45:16;10.37;;;9.73;;
7813;SDS011;3952;48.364;16.022;2022-07-23T02:47:43;10.83;;;10.10;;
7813;SDS011;3952;48.364;16.022;2022-07-23T02:50:12;10.37;;;9.70;;
7813;SDS011;3952;48.364;16.022;2022-07-23T02:52:39;10.87;;;10.00;;
7813;SDS011;3952;48.364;16.022;2022-07-23T02:55:06;11.43;;;10.63;;
7813;SDS011;3952;48.364;16.022;2022-07-23T02:57:34;12.07;;;10.80;;
7813;SDS011;3952;48.364;16.022;2022-07-23T03:00:01;10.57;;;8.97;;
7813;SDS011;3952;48.364;16.022;2022-07-23T03:02:30;9.70;;;9.00;;
7813;SDS011;3952;48.364;16.022;2022-07-23T03:04:57;9.90;;;9.30;;
7813;SDS011;3952;48.364;16.022;2022-07-23T03:07:25;10.67;;;9.80;;
7813;SDS011;3952;48.364;16.022;2022-07-23T03:09:53;9.50;;;8.90;;
7813;SDS011;3952;48.364;16.022;2022-07-23T03:12:20;10.10;;;9.30;;
7813;SDS011;3952;48.364;16.022;2022-07-23T03:14:47;10.77;;;9.70;;
7813;SDS011;3952;48.364;16.022;2022-07-23T03:17:14;9.97;;;9.37;;
7813;SDS011;3952;48.364;16.022;2022-07-23T03:19:42;9.83;;;9.23;;
7813;SDS011;3952;48.364;16.022;2022-07-23T03:22:09;11.70;;;9.67;;
7813;SDS011;3952;48.364;16.022;2022-07-23T03:24:38;9.77;;;9.17;;
7813;SDS011;3952;48.364;16.022;2022-07-23T03:27:20;9.80;;;9.23;;
7813;SDS011;3952;48.364;16.022;2022-07-23T03:29:48;8.37;;;7.97;;
7813;SDS011;3952;48.364;16.022;2022-07-23T03:32:16;9.50;;;8.90;;
7813;SDS011;3952;48.364;16.022;2022-07-23T03:34:43;10.10;;;9.40;;
7813;SDS011;3952;48.364;16.022;2022-07-23T03:37:10;10.40;;;9.30;;
7813;SDS011;3952;48.364;16.022;2022-07-23T03:39:39;9.70;;;9.10;;
7813;SDS011;3952;48.364;16.022;2022-07-23T03:42:07;9.27;;;8.73;;
7813;SDS011;3952;48.364;16.022;2022-07-23T03:44:34;9.03;;;8.53;;
7813;SDS011;3952;48.364;16.022;2022-07-23T03:47:03;9.80;;;9.10;;
7813;SDS011;3952;48.364;16.022;2022-07-23T03:49:31;10.53;;;9.83;;
7813;SDS011;3952;48.364;16.022;2022-07-23T03:51:59;10.73;;;9.30;;
7813;SDS011;3952;48.364;16.022;2022-07-23T03:54:27;9.80;;;9.03;;
7813;SDS011;3952;48.364;16.022;2022-07-23T03:56:56;9.30;;;8.70;;
7813;SDS011;3952;48.364;16.022;2022-07-23T03:59:23;9.63;;;8.90;;
7813;SDS011;3952;48.364;16.022;2022-07-23T04:01:50;9.57;;;8.97;;
7813;SDS011;3952;48.364;16.022;2022-07-23T04:04:17;10.83;;;9.63;;
7813;SDS011;3952;48.364;16.022;2022-07-23T04:06:44;9.83;;;9.10;;
7813;SDS011;3952;48.364;16.022;2022-07-23T04:09:12;9.50;;;8.90;;
7813;SDS011;3952;48.364;16.022;2022-07-23T04:11:39;9.80;;;9.27;;
7813;SDS011;3952;48.364;16.022;2022-07-23T04:14:08;9.27;;;8.77;;
7813;SDS011;3952;48.364;16.022;2022-07-23T04:16:35;9.00;;;8.50;;
7813;SDS011;3952;48.364;16.022;2022-07-23T04:19:02;9.07;;;8.37;;
7813;SDS011;3952;48.364;16.022;2022-07-23T04:21:30;8.90;;;8.20;;
7813;SDS011;3952;48.364;16.022;2022-07-23T04:23:57;9.37;;;8.87;;
7813;SDS011;3952;48.364;16.022;2022-07-23T04:26:24;9.43;;;8.77;;
7813;SDS011;3952;48.364;16.022;2022-07-23T04:28:51;10.00;;;9.33;;
7813;SDS011;3952;48.364;16.022;2022-07-23T04:31:20;9.47;;;8.90;;
7813;SDS011;3952;48.364;16.022;2022-07-23T04:33:47;9.43;;;8.87;;
7813;SDS011;3952;48.364;16.022;2022-07-23T04:36:14;8.80;;;8.00;;
7813;SDS011;3952;48.364;16.022;2022-07-23T04:38:42;8.80;;;8.23;;
7813;SDS011;3952;48.364;16.022;2022-07-23T04:41:09;9.57;;;8.88;;
7813;SDS011;3952;48.364;16.022;2022-07-23T04:43:36;9.98;;;9.27;;
7813;SDS011;3952;48.364;16.022;2022-07-23T04:46:03;9.83;;;9.07;;
7813;SDS011;3952;48.364;16.022;2022-07-23T04:48:33;9.52;;;8.82;;
7813;SDS011;3952;48.364;16.022;2022-07-23T04:51:00;9.35;;;8.60;;
7813;SDS011;3952;48.364;16.022;2022-07-23T04:53:28;10.40;;;9.45;;
7813;SDS011;3952;48.364;16.022;2022-07-23T04:55:55;9.20;;;8.70;;
7813;SDS011;3952;48.364;16.022;2022-07-23T04:58:22;9.10;;;8.63;;
7813;SDS011;3952;48.364;16.022;2022-07-23T05:00:50;8.70;;;8.30;;
7813;SDS011;3952;48.364;16.022;2022-07-23T05:03:17;9.00;;;8.50;;
7813;SDS011;3952;48.364;16.022;2022-07-23T05:05:46;9.05;;;8.43;;
7813;SDS011;3952;48.364;16.022;2022-07-23T05:08:13;9.13;;;8.43;;
7813;SDS011;3952;48.364;16.022;2022-07-23T05:10:40;8.43;;;7.93;;
7813;SDS011;3952;48.364;16.022;2022-07-23T05:13:07;9.75;;;9.10;;
7813;SDS011;3952;48.364;16.022;2022-07-23T05:15:35;9.25;;;8.63;;
7813;SDS011;3952;48.364;16.022;2022-07-23T05:18:02;9.70;;;9.10;;
7813;SDS011;3952;48.364;16.022;2022-07-23T05:20:29;9.02;;;8.32;;
7813;SDS011;3952;48.364;16.022;2022-07-23T05:22:58;8.40;;;8.00;;
7813;SDS011;3952;48.364;16.022;2022-07-23T05:25:25;8.98;;;8.48;;
7813;SDS011;3952;48.364;16.022;2022-07-23T05:27:53;9.10;;;8.60;;
7813;SDS011;3952;48.364;16.022;2022-07-23T05:30:20;8.88;;;8.27;;
7813;SDS011;3952;48.364;16.022;2022-07-23T05:32:47;8.32;;;7.93;;
7813;SDS011;3952;48.364;16.022;2022-07-23T05:35:15;9.27;;;8.57;;
7813;SDS011;3952;48.364;16.022;2022-07-23T05:37:42;9.07;;;8.50;;
7813;SDS011;3952;48.364;16.022;2022-07-23T05:40:11;9.00;;;8.50;;
7813;SDS011;3952;48.364;16.022;2022-07-23T05:42:39;9.75;;;8.88;;
7813;SDS011;3952;48.364;16.022;2022-07-23T05:45:08;9.70;;;8.90;;
7813;SDS011;3952;48.364;16.022;2022-07-23T05:47:40;9.68;;;9.07;;
7813;SDS011;3952;48.364;16.022;2022-07-23T05:50:10;10.07;;;9.38;;
7813;SDS011;3952;48.364;16.022;2022-07-23T05:52:38;9.95;;;9.25;;
7813;SDS011;3952;48.364;16.022;2022-07-23T05:55:06;9.70;;;8.90;;
7813;SDS011;3952;48.364;16.022;2022-07-23T05:57:35;9.75;;;9.05;;
7813;SDS011;3952;48.364;16.022;2022-07-23T06:00:04;8.63;;;8.20;;
7813;SDS011;3952;48.364;16.022;2022-07-23T06:02:32;8.32;;;7.82;;
7813;SDS011;3952;48.364;16.022;2022-07-23T06:05:00;7.80;;;7.40;;
7813;SDS011;3952;48.364;16.022;2022-07-23T06:07:27;7.13;;;6.68;;
7813;SDS011;3952;48.364;16.022;2022-07-23T06:09:54;7.47;;;7.07;;
7813;SDS011;3952;48.364;16.022;2022-07-23T06:12:21;6.57;;;6.18;;
7813;SDS011;3952;48.364;16.022;2022-07-23T06:14:51;7.10;;;6.70;;
7813;SDS011;3952;48.364;16.022;2022-07-23T06:17:18;7.35;;;6.95;;
7813;SDS011;3952;48.364;16.022;2022-07-23T06:19:45;6.78;;;6.38;;
7813;SDS011;3952;48.364;16.022;2022-07-23T06:22:12;6.28;;;5.97;;
7813;SDS011;3952;48.364;16.022;2022-07-23T06:24:39;7.22;;;6.63;;
7813;SDS011;3952;48.364;16.022;2022-07-23T06:27:07;6.85;;;6.55;;
7813;SDS011;3952;48.364;16.022;2022-07-23T06:29:34;7.07;;;6.68;;
7813;SDS011;3952;48.364;16.022;2022-07-23T06:32:03;8.30;;;7.65;;
7813;SDS011;3952;48.364;16.022;2022-07-23T06:34:31;7.68;;;7.28;;
7813;SDS011;3952;48.364;16.022;2022-07-23T06:36:58;7.68;;;7.18;;
7813;SDS011;3952;48.364;16.022;2022-07-23T06:39:25;7.82;;;7.32;;
7813;SDS011;3952;48.364;16.022;2022-07-23T06:41:53;8.35;;;7.68;;
7813;SDS011;3952;48.364;16.022;2022-07-23T06:44:20;9.10;;;8.60;;
7813;SDS011;3952;48.364;16.022;2022-07-23T06:46:48;7.93;;;7.43;;
7813;SDS011;3952;48.364;16.022;2022-07-23T06:49:17;8.93;;;8.43;;
7813;SDS011;3952;48.364;16.022;2022-07-23T06:51:44;9.35;;;8.85;;
7813;SDS011;3952;48.364;16.022;2022-07-23T06:54:11;9.77;;;9.00;;
7813;SDS011;3952;48.364;16.022;2022-07-23T06:56:39;9.20;;;8.70;;
7813;SDS011;3952;48.364;16.022;2022-07-23T06:59:06;9.43;;;8.68;;
7813;SDS011;3952;48.364;16.022;2022-07-23T07:01:33;11.27;;;8.93;;
7813;SDS011;3952;48.364;16.022;2022-07-23T07:04:01;9.23;;;8.35;;
7813;SDS011;3952;48.364;16.022;2022-07-23T07:06:29;8.50;;;7.90;;
7813;SDS011;3952;48.364;16.022;2022-07-23T07:08:57;7.45;;;6.95;;
7813;SDS011;3952;48.364;16.022;2022-07-23T07:11:24;7.60;;;7.20;;
7813;SDS011;3952;48.364;16.022;2022-07-23T07:13:51;7.57;;;6.97;;
7813;SDS011;3952;48.364;16.022;2022-07-23T07:16:18;8.00;;;7.50;;
7813;SDS011;3952;48.364;16.022;2022-07-23T07:18:46;7.55;;;7.05;;
7813;SDS011;3952;48.364;16.022;2022-07-23T07:21:14;7.32;;;6.72;;
7813;SDS011;3952;48.364;16.022;2022-07-23T07:23:43;7.65;;;7.18;;
7813;SDS011;3952;48.364;16.022;2022-07-23T07:26:10;6.88;;;6.47;;
7813;SDS011;3952;48.364;16.022;2022-07-23T07:28:37;7.10;;;6.55;;
7813;SDS011;3952;48.364;16.022;2022-07-23T07:31:04;6.90;;;6.45;;
7813;SDS011;3952;48.364;16.022;2022-07-23T07:33:32;6.93;;;6.55;;
7813;SDS011;3952;48.364;16.022;2022-07-23T07:35:59;5.88;;;5.57;;
7813;SDS011;3952;48.364;16.022;2022-07-23T07:38:26;6.70;;;6.20;;
7813;SDS011;3952;48.364;16.022;2022-07-23T07:40:55;6.90;;;6.43;;
7813;SDS011;3952;48.364;16.022;2022-07-23T07:43:22;6.47;;;6.18;;
7813;SDS011;3952;48.364;16.022;2022-07-23T07:45:50;6.72;;;6.32;;
7813;SDS011;3952;48.364;16.022;2022-07-23T07:48:17;6.00;;;5.70;;
7813;SDS011;3952;48.364;16.022;2022-07-23T07:50:44;6.32;;;6.03;;
7813;SDS011;3952;48.364;16.022;2022-07-23T07:53:12;6.35;;;5.85;;
7813;SDS011;3952;48.364;16.022;2022-07-23T07:55:39;6.80;;;6.10;;
7813;SDS011;3952;48.364;16.022;2022-07-23T07:58:07;7.10;;;6.60;;
7813;SDS011;3952;48.364;16.022;2022-07-23T08:00:35;6.00;;;5.57;;
7813;SDS011;3952;48.364;16.022;2022-07-23T08:03:02;5.72;;;5.43;;
7813;SDS011;3952;48.364;16.022;2022-07-23T08:05:30;6.00;;;5.60;;
7813;SDS011;3952;48.364;16.022;2022-07-23T08:07:57;6.63;;;5.60;;
7813;SDS011;3952;48.364;16.022;2022-07-23T08:10:26;6.18;;;5.78;;
7813;SDS011;3952;48.364;16.022;2022-07-23T08:12:57;5.72;;;5.35;;
7813;SDS011;3952;48.364;16.022;2022-07-23T08:15:28;6.18;;;5.70;;
7813;SDS011;3952;48.364;16.022;2022-07-23T08:17:57;6.13;;;5.57;;
7813;SDS011;3952;48.364;16.022;2022-07-23T08:20:25;5.97;;;5.38;;
7813;SDS011;3952;48.364;16.022;2022-07-23T08:22:53;5.40;;;5.10;;
7813;SDS011;3952;48.364;16.022;2022-07-23T08:25:21;5.55;;;5.25;;
7813;SDS011;3952;48.364;16.022;2022-07-23T08:27:51;5.97;;;5.68;;
7813;SDS011;3952;48.364;16.022;2022-07-23T08:30:19;5.18;;;4.80;;
7813;SDS011;3952;48.364;16.022;2022-07-23T08:32:52;5.82;;;5.47;;
7813;SDS011;3952;48.364;16.022;2022-07-23T08:35:21;5.60;;;5.30;;
7813;SDS011;3952;48.364;16.022;2022-07-23T08:37:50;6.78;;;5.30;;
7813;SDS011;3952;48.364;16.022;2022-07-23T08:40:18;6.20;;;5.80;;
7813;SDS011;3952;48.364;16.022;2022-07-23T08:42:46;5.93;;;5.50;;
7813;SDS011;3952;48.364;16.022;2022-07-23T08:45:15;5.22;;;4.93;;
7813;SDS011;3952;48.364;16.022;2022-07-23T08:47:47;5.55;;;5.20;;
7813;SDS011;3952;48.364;16.022;2022-07-23T08:50:17;5.78;;;5.43;;
7813;SDS011;3952;48.364;16.022;2022-07-23T08:52:45;6.20;;;5.65;;
7813;SDS011;3952;48.364;16.022;2022-07-23T08:55:13;6.45;;;5.95;;
7813;SDS011;3952;48.364;16.022;2022-07-23T08:57:42;5.60;;;5.18;;
7813;SDS011;3952;48.364;16.022;2022-07-23T09:00:10;5.47;;;5.15;;
7813;SDS011;3952;48.364;16.022;2022-07-23T09:02:38;5.65;;;5.15;;
7813;SDS011;3952;48.364;16.022;2022-07-23T09:05:07;5.97;;;5.57;;
7813;SDS011;3952;48.364;16.022;2022-07-23T09:07:37;5.40;;;5.20;;
7813;SDS011;3952;48.364;16.022;2022-07-23T09:10:06;5.75;;;5.35;;
7813;SDS011;3952;48.364;16.022;2022-07-23T09:12:35;6.30;;;5.90;;
7813;SDS011;3952;48.364;16.022;2022-07-23T09:15:03;6.35;;;5.82;;
7813;SDS011;3952;48.364;16.022;2022-07-23T09:17:39;5.75;;;5.45;;
7813;SDS011;3952;48.364;16.022;2022-07-23T09:20:09;5.80;;;5.55;;
7813;SDS011;3952;48.364;16.022;2022-07-23T09:22:39;5.55;;;5.25;;
7813;SDS011;3952;48.364;16.022;2022-07-23T09:25:12;5.95;;;5.65;;
7813;SDS011;3952;48.364;16.022;2022-07-23T09:27:54;5.97;;;5.68;;
7813;SDS011;3952;48.364;16.022;2022-07-23T09:30:23;6.07;;;5.75;;
7813;SDS011;3952;48.364;16.022;2022-07-23T09:33:08;6.80;;;6.30;;
7813;SDS011;3952;48.364;16.022;2022-07-23T09:35:46;6.55;;;5.95;;
7813;SDS011;3952;48.364;16.022;2022-07-23T09:38:17;5.90;;;5.50;;
7813;SDS011;3952;48.364;16.022;2022-07-23T09:40:46;6.07;;;5.70;;
7813;SDS011;3952;48.364;16.022;2022-07-23T09:43:31;6.75;;;6.25;;
7813;SDS011;3952;48.364;16.022;2022-07-23T09:48:44;6.63;;;6.05;;
7813;SDS011;3952;48.364;16.022;2022-07-23T09:51:11;6.60;;;6.10;;
7813;SDS011;3952;48.364;16.022;2022-07-23T09:53:41;5.75;;;5.55;;
7813;SDS011;3952;48.364;16.022;2022-07-23T09:56:08;6.25;;;5.80;;
7813;SDS011;3952;48.364;16.022;2022-07-23T09:58:37;5.75;;;5.45;;
7813;SDS011;3952;48.364;16.022;2022-07-23T10:01:10;6.35;;;5.93;;
7813;SDS011;3952;48.364;16.022;2022-07-23T10:03:40;6.50;;;6.10;;
7813;SDS011;3952;48.364;16.022;2022-07-23T10:06:08;6.13;;;5.82;;
7813;SDS011;3952;48.364;16.022;2022-07-23T10:08:36;6.28;;;5.97;;
7813;SDS011;3952;48.364;16.022;2022-07-23T10:11:09;6.35;;;6.05;;
7813;SDS011;3952;48.364;16.022;2022-07-23T10:13:39;6.18;;;5.88;;
7813;SDS011;3952;48.364;16.022;2022-07-23T10:16:18;6.55;;;6.25;;
7813;SDS011;3952;48.364;16.022;2022-07-23T10:18:46;6.45;;;6.05;;
7813;SDS011;3952;48.364;16.022;2022-07-23T10:21:16;5.88;;;5.68;;
7813;SDS011;3952;48.364;16.022;2022-07-23T10:23:57;6.13;;;5.90;;
7813;SDS011;3952;48.364;16.022;2022-07-23T10:26:34;6.88;;;6.38;;
7813;SDS011;3952;48.364;16.022;2022-07-23T10:29:07;6.88;;;6.28;;
7813;SDS011;3952;48.364;16.022;2022-07-23T10:31:42;6.75;;;6.32;;
7813;SDS011;3952;48.364;16.022;2022-07-23T10:34:21;7.35;;;6.95;;
7813;SDS011;3952;48.364;16.022;2022-07-23T10:36:52;7.30;;;6.70;;
7813;SDS011;3952;48.364;16.022;2022-07-23T10:39:26;6.82;;;6.32;;
7813;SDS011;3952;48.364;16.022;2022-07-23T10:42:07;6.38;;;6.05;;
7813;SDS011;3952;48.364;16.022;2022-07-23T10:44:38;6.50;;;5.90;;
7813;SDS011;3952;48.364;16.022;2022-07-23T10:47:08;6.75;;;6.45;;
7813;SDS011;3952;48.364;16.022;2022-07-23T10:50:17;6.53;;;6.22;;
7813;SDS011;3952;48.364;16.022;2022-07-23T10:55:48;6.35;;;6.05;;
7813;SDS011;3952;48.364;16.022;2022-07-23T10:58:18;6.65;;;6.35;;
7813;SDS011;3952;48.364;16.022;2022-07-23T11:00:47;6.82;;;6.45;;
7813;SDS011;3952;48.364;16.022;2022-07-23T11:03:28;7.07;;;6.78;;
7813;SDS011;3952;48.364;16.022;2022-07-23T11:06:01;6.53;;;6.22;;
7813;SDS011;3952;48.364;16.022;2022-07-23T11:08:29;6.22;;;5.93;;
7813;SDS011;3952;48.364;16.022;2022-07-23T11:11:08;7.03;;;6.53;;
7813;SDS011;3952;48.364;16.022;2022-07-23T11:13:40;6.80;;;6.32;;
7813;SDS011;3952;48.364;16.022;2022-07-23T11:19:12;7.13;;;6.68;;
7813;SDS011;3952;48.364;16.022;2022-07-23T11:21:43;6.75;;;6.45;;
7813;SDS011;3952;48.364;16.022;2022-07-23T11:24:12;6.53;;;6.20;;
7813;SDS011;3952;48.364;16.022;2022-07-23T11:29:40;9.68;;;6.57;;
7813;SDS011;3952;48.364;16.022;2022-07-23T11:32:23;6.10;;;5.80;;
7813;SDS011;3952;48.364;16.022;2022-07-23T11:35:00;6.28;;;5.97;;
7813;SDS011;3952;48.364;16.022;2022-07-23T11:37:29;6.72;;;6.43;;
7813;SDS011;3952;48.364;16.022;2022-07-23T11:40:00;6.20;;;5.90;;
7813;SDS011;3952;48.364;16.022;2022-07-23T11:42:30;6.00;;;5.60;;
7813;SDS011;3952;48.364;16.022;2022-07-23T11:44:58;7.00;;;6.05;;
7813;SDS011;3952;48.364;16.022;2022-07-23T11:47:26;5.90;;;5.50;;
7813;SDS011;3952;48.364;16.022;2022-07-23T11:49:54;6.10;;;5.70;;
7813;SDS011;3952;48.364;16.022;2022-07-23T11:52:23;5.75;;;5.45;;
7813;SDS011;3952;48.364;16.022;2022-07-23T11:54:51;14.48;;;6.78;;
7813;SDS011;3952;48.364;16.022;2022-07-23T11:57:20;5.68;;;5.28;;
7813;SDS011;3952;48.364;16.022;2022-07-23T11:59:52;5.90;;;5.60;;
7813;SDS011;3952;48.364;16.022;2022-07-23T12:02:22;6.35;;;5.40;;
7813;SDS011;3952;48.364;16.022;2022-07-23T12:04:51;5.88;;;5.57;;
7813;SDS011;3952;48.364;16.022;2022-07-23T12:07:26;7.90;;;6.07;;
7813;SDS011;3952;48.364;16.022;2022-07-23T12:09:55;6.00;;;5.70;;
7813;SDS011;3952;48.364;16.022;2022-07-23T12:12:23;5.82;;;5.20;;
7813;SDS011;3952;48.364;16.022;2022-07-23T12:14:54;5.70;;;5.40;;
7813;SDS011;3952;48.364;16.022;2022-07-23T12:17:27;4.80;;;4.47;;
7813;SDS011;3952;48.364;16.022;2022-07-23T12:19:55;4.50;;;4.22;;
7813;SDS011;3952;48.364;16.022;2022-07-23T12:22:23;4.90;;;4.55;;
7813;SDS011;3952;48.364;16.022;2022-07-23T12:24:53;4.05;;;3.75;;
7813;SDS011;3952;48.364;16.022;2022-07-23T12:27:21;4.15;;;3.75;;
7813;SDS011;3952;48.364;16.022;2022-07-23T12:29:49;3.78;;;3.47;;
7813;SDS011;3952;48.364;16.022;2022-07-23T12:32:19;3.80;;;3.50;;
7813;SDS011;3952;48.364;16.022;2022-07-23T12:34:48;4.05;;;3.58;;
7813;SDS011;3952;48.364;16.022;2022-07-23T12:37:27;3.58;;;3.47;;
7813;SDS011;3952;48.364;16.022;2022-07-23T12:39:56;3.55;;;3.35;;
7813;SDS011;3952;48.364;16.022;2022-07-23T12:42:23;3.95;;;3.70;;
7813;SDS011;3952;48.364;16.022;2022-07-23T12:45:07;3.50;;;3.30;;
7813;SDS011;3952;48.364;16.022;2022-07-23T12:48:00;3.70;;;3.40;;
7813;SDS011;3952;48.364;16.022;2022-07-23T12:50:33;5.68;;;3.35;;
7813;SDS011;3952;48.364;16.022;2022-07-23T12:53:02;2.90;;;2.80;;
7813;SDS011;3952;48.364;16.022;2022-07-23T12:55:30;2.70;;;2.60;;
7813;SDS011;3952;48.364;16.022;2022-07-23T12:58:02;2.75;;;2.65;;
7813;SDS011;3952;48.364;16.022;2022-07-23T13:00:31;3.00;;;2.70;;
7813;SDS011;3952;48.364;16.022;2022-07-23T13:03:00;2.78;;;2.67;;
7813;SDS011;3952;48.364;16.022;2022-07-23T13:05:27;4.47;;;3.25;;
7813;SDS011;3952;48.364;16.022;2022-07-23T13:07:55;2.80;;;2.70;;
7813;SDS011;3952;48.364;16.022;2022-07-23T13:10:22;2.80;;;2.60;;
7813;SDS011;3952;48.364;16.022;2022-07-23T13:12:49;7.22;;;2.47;;
7813;SDS011;3952;48.364;16.022;2022-07-23T13:15:16;4.03;;;2.45;;
7813;SDS011;3952;48.364;16.022;2022-07-23T13:17:43;2.30;;;2.20;;
7813;SDS011;3952;48.364;16.022;2022-07-23T13:20:14;6.22;;;2.45;;
7813;SDS011;3952;48.364;16.022;2022-07-23T13:22:42;4.50;;;2.53;;
7813;SDS011;3952;48.364;16.022;2022-07-23T13:25:09;5.57;;;2.50;;
7813;SDS011;3952;48.364;16.022;2022-07-23T13:27:36;6.25;;;2.70;;
7813;SDS011;3952;48.364;16.022;2022-07-23T13:30:04;6.35;;;3.08;;
7813;SDS011;3952;48.364;16.022;2022-07-23T13:32:32;7.53;;;2.92;;
7813;SDS011;3952;48.364;16.022;2022-07-23T13:34:59;6.85;;;3.10;;
7813;SDS011;3952;48.364;16.022;2022-07-23T13:37:28;6.60;;;3.03;;
7813;SDS011;3952;48.364;16.022;2022-07-23T13:39:55;4.70;;;3.10;;
7813;SDS011;3952;48.364;16.022;2022-07-23T13:42:22;3.28;;;3.03;;
7813;SDS011;3952;48.364;16.022;2022-07-23T13:44:50;3.15;;;2.95;;
7813;SDS011;3952;48.364;16.022;2022-07-23T13:47:17;3.35;;;3.05;;
7813;SDS011;3952;48.364;16.022;2022-07-23T13:49:44;2.92;;;2.80;;
7813;SDS011;3952;48.364;16.022;2022-07-23T13:52:11;4.65;;;3.35;;
7813;SDS011;3952;48.364;16.022;2022-07-23T13:54:40;3.30;;;3.20;;
7813;SDS011;3952;48.364;16.022;2022-07-23T13:57:07;3.70;;;3.40;;
7813;SDS011;3952;48.364;16.022;2022-07-23T13:59:35;4.70;;;3.78;;
7813;SDS011;3952;48.364;16.022;2022-07-23T14:02:03;3.35;;;3.15;;
7813;SDS011;3952;48.364;16.022;2022-07-23T14:04:31;3.45;;;3.35;;
7813;SDS011;3952;48.364;16.022;2022-07-23T14:06:58;5.65;;;4.20;;
7813;SDS011;3952;48.364;16.022;2022-07-23T14:09:26;3.97;;;3.78;;
7813;SDS011;3952;48.364;16.022;2022-07-23T14:11:56;3.90;;;3.78;;
7813;SDS011;3952;48.364;16.022;2022-07-23T14:14:23;3.83;;;3.63;;
7813;SDS011;3952;48.364;16.022;2022-07-23T14:16:50;3.50;;;3.33;;
7813;SDS011;3952;48.364;16.022;2022-07-23T14:19:18;3.58;;;3.38;;
7813;SDS011;3952;48.364;16.022;2022-07-23T14:21:45;3.88;;;3.67;;
7813;SDS011;3952;48.364;16.022;2022-07-23T14:24:13;3.80;;;3.60;;
7813;SDS011;3952;48.364;16.022;2022-07-23T14:26:41;3.88;;;3.58;;
7813;SDS011;3952;48.364;16.022;2022-07-23T14:29:09;3.85;;;3.65;;
7813;SDS011;3952;48.364;16.022;2022-07-23T14:31:36;4.18;;;3.88;;
7813;SDS011;3952;48.364;16.022;2022-07-23T14:34:04;4.18;;;3.97;;
7813;SDS011;3952;48.364;16.022;2022-07-23T14:36:31;4.07;;;3.88;;
7813;SDS011;3952;48.364;16.022;2022-07-23T14:38:58;4.50;;;4.18;;
7813;SDS011;3952;48.364;16.022;2022-07-23T14:41:26;4.13;;;3.83;;
7813;SDS011;3952;48.364;16.022;2022-07-23T14:43:53;4.10;;;3.83;;
7813;SDS011;3952;48.364;16.022;2022-07-23T14:46:23;3.92;;;3.72;;
7813;SDS011;3952;48.364;16.022;2022-07-23T14:48:51;4.10;;;3.90;;
7813;SDS011;3952;48.364;16.022;2022-07-23T14:51:18;3.83;;;3.63;;
7813;SDS011;3952;48.364;16.022;2022-07-23T14:53:45;3.90;;;3.60;;
7813;SDS011;3952;48.364;16.022;2022-07-23T14:56:13;3.63;;;3.42;;
7813;SDS011;3952;48.364;16.022;2022-07-23T14:58:40;3.50;;;3.20;;
7813;SDS011;3952;48.364;16.022;2022-07-23T15:01:08;3.97;;;3.78;;
7813;SDS011;3952;48.364;16.022;2022-07-23T15:03:36;4.25;;;3.85;;
7813;SDS011;3952;48.364;16.022;2022-07-23T15:06:04;8.40;;;4.50;;
7813;SDS011;3952;48.364;16.022;2022-07-23T15:08:31;4.30;;;4.05;;
7813;SDS011;3952;48.364;16.022;2022-07-23T15:10:59;4.05;;;3.85;;
7813;SDS011;3952;48.364;16.022;2022-07-23T15:13:26;4.18;;;3.97;;
7813;SDS011;3952;48.364;16.022;2022-07-23T15:15:53;4.82;;;4.13;;
7813;SDS011;3952;48.364;16.022;2022-07-23T15:18:20;3.78;;;3.58;;